createdAt,value
2022-07-27T00:01:06.768Z,20.44
2022-07-27T00:03:34.538Z,20.27
2022-07-27T00:06:02.189Z,20.42
2022-07-27T00:08:29.808Z,20.38
2022-07-27T00:10:57.477Z,20.32
2022-07-27T00:13:25.091Z,20.32
2022-07-27T00:15:54.172Z,20.32
2022-07-27T00:18:21.984Z,20.31
2022-07-27T00:20:49.702Z,20.17
2022-07-27T00:23:17.294Z,20.13
2022-07-27T00:25:44.828Z,20.06
2022-07-27T00:28:12.363Z,19.97
2022-07-27T00:30:39.908Z,19.94
2022-07-27T00:33:08.825Z,19.88
2022-07-27T00:35:36.352Z,19.83
2022-07-27T00:38:04.380Z,19.78
2022-07-27T00:40:32.034Z,19.76
2022-07-27T00:42:59.733Z,19.72
2022-07-27T00:45:27.315Z,19.72
2022-07-27T00:47:55.298Z,19.72
2022-07-27T00:50:24.721Z,19.63
2022-07-27T00:52:52.733Z,19.60
2022-07-27T00:55:20.363Z,19.59
2022-07-27T00:57:58.208Z,19.62
2022-07-27T01:00:27.255Z,19.54
2022-07-27T01:02:55.103Z,19.42
2022-07-27T01:05:35.935Z,19.58
2022-07-27T01:08:06.649Z,19.48
2022-07-27T01:10:34.357Z,19.52
2022-07-27T01:13:02.063Z,19.44
2022-07-27T01:15:29.664Z,19.45
2022-07-27T01:17:57.147Z,19.43
2022-07-27T01:20:26.394Z,19.36
2022-07-27T01:22:55.226Z,19.32
2022-07-27T01:25:22.711Z,19.34
2022-07-27T01:27:50.185Z,19.36
2022-07-27T01:30:30.372Z,19.36
2022-07-27T01:33:02.063Z,19.31
2022-07-27T01:35:29.797Z,19.30
2022-07-27T01:37:59.092Z,19.22
2022-07-27T01:40:27.253Z,19.28
2022-07-27T01:42:54.839Z,19.34
2022-07-27T01:45:22.662Z,19.41
2022-07-27T01:47:50.204Z,19.36
2022-07-27T01:50:17.750Z,19.33
2022-07-27T01:52:45.200Z,19.24
2022-07-27T01:55:14.054Z,19.18
2022-07-27T01:57:42.352Z,19.19
2022-07-27T02:00:12.035Z,19.22
2022-07-27T02:02:39.860Z,19.20
2022-07-27T02:05:07.945Z,19.19
2022-07-27T02:07:35.469Z,19.12
2022-07-27T02:10:02.989Z,19.11
2022-07-27T02:12:36.603Z,19.12
2022-07-27T02:15:06.264Z,19.15
2022-07-27T02:17:34.225Z,19.18
2022-07-27T02:20:03.493Z,19.11
2022-07-27T02:22:31.246Z,19.03
2022-07-27T02:24:58.988Z,18.97
2022-07-27T02:27:26.502Z,18.99
2022-07-27T02:29:55.339Z,18.94
2022-07-27T02:32:22.942Z,18.90
2022-07-27T02:34:50.955Z,18.96
2022-07-27T02:37:18.461Z,18.96
2022-07-27T02:39:45.935Z,18.90
2022-07-27T02:42:13.420Z,18.80
2022-07-27T02:44:41.207Z,18.81
2022-07-27T02:47:10.038Z,18.83
2022-07-27T02:49:37.559Z,18.91
2022-07-27T02:52:06.363Z,18.89
2022-07-27T02:54:34.850Z,18.82
2022-07-27T02:57:04.702Z,18.79
2022-07-27T02:59:32.633Z,18.78
2022-07-27T03:02:00.228Z,18.77
2022-07-27T03:04:29.232Z,18.64
2022-07-27T03:06:56.743Z,18.63
2022-07-27T03:09:32.984Z,18.63
2022-07-27T03:12:00.967Z,18.58
2022-07-27T03:14:28.499Z,18.57
2022-07-27T03:16:56.048Z,18.57
2022-07-27T03:19:28.306Z,18.52
2022-07-27T03:21:58.930Z,18.55
2022-07-27T03:24:26.656Z,18.46
2022-07-27T03:26:54.170Z,18.50
2022-07-27T03:29:21.634Z,18.45
2022-07-27T03:31:49.132Z,18.54
2022-07-27T03:34:17.506Z,18.43
2022-07-27T03:36:46.112Z,18.35
2022-07-27T03:39:15.218Z,18.41
2022-07-27T03:41:42.901Z,18.49
2022-07-27T03:44:10.402Z,18.38
2022-07-27T03:46:37.905Z,18.33
2022-07-27T03:49:13.911Z,18.30
2022-07-27T03:51:42.554Z,18.30
2022-07-27T03:54:10.140Z,18.29
2022-07-27T03:56:39.015Z,18.23
2022-07-27T03:59:06.673Z,18.22
2022-07-27T04:01:34.290Z,18.20
2022-07-27T04:04:02.027Z,18.27
2022-07-27T04:06:29.567Z,18.31
2022-07-27T04:09:07.652Z,18.27
2022-07-27T04:11:37.822Z,18.29
2022-07-27T04:14:13.482Z,18.20
2022-07-27T04:16:41.469Z,18.11
2022-07-27T04:19:09.278Z,18.09
2022-07-27T04:21:36.973Z,18.11
2022-07-27T04:24:05.040Z,18.11
2022-07-27T04:26:32.504Z,18.05
2022-07-27T04:28:59.969Z,18.09
2022-07-27T04:31:28.822Z,18.00
2022-07-27T04:33:56.282Z,18.02
2022-07-27T04:36:23.790Z,18.07
2022-07-27T04:38:51.253Z,18.05
2022-07-27T04:41:18.776Z,17.99
2022-07-27T04:43:46.270Z,18.01
2022-07-27T04:46:15.548Z,17.98
2022-07-27T04:48:49.145Z,17.98
2022-07-27T04:51:17.642Z,17.99
2022-07-27T04:53:53.755Z,18.06
2022-07-27T04:56:26.139Z,18.07
2022-07-27T04:58:53.853Z,17.98
2022-07-27T05:01:22.854Z,17.97
2022-07-27T05:03:52.039Z,18.01
2022-07-27T05:06:19.687Z,17.98
2022-07-27T05:08:47.254Z,17.93
2022-07-27T05:11:14.915Z,18.00
2022-07-27T05:13:42.442Z,17.96
2022-07-27T05:16:10.672Z,17.99
2022-07-27T05:18:38.636Z,17.99
2022-07-27T05:21:08.249Z,17.97
2022-07-27T05:23:35.826Z,17.99
2022-07-27T05:26:03.789Z,18.00
2022-07-27T05:28:31.320Z,18.02
2022-07-27T05:30:58.803Z,18.04
2022-07-27T05:33:26.321Z,18.09
2022-07-27T05:35:53.817Z,18.09
2022-07-27T05:38:22.693Z,18.00
2022-07-27T05:40:50.310Z,17.99
2022-07-27T05:43:17.810Z,17.94
2022-07-27T05:45:45.382Z,18.00
2022-07-27T05:48:12.921Z,18.05
2022-07-27T05:50:40.398Z,18.02
2022-07-27T05:53:08.739Z,18.02
2022-07-27T05:55:37.594Z,17.95
2022-07-27T05:58:06.230Z,18.06
2022-07-27T06:00:33.724Z,18.21
2022-07-27T06:03:01.304Z,18.23
2022-07-27T06:05:28.929Z,18.26
2022-07-27T06:08:06.503Z,18.29
2022-07-27T06:10:34.739Z,18.31
2022-07-27T06:13:04.318Z,18.31
2022-07-27T06:15:32.043Z,18.24
2022-07-27T06:17:59.546Z,18.27
2022-07-27T06:20:27.257Z,18.14
2022-07-27T06:22:57.145Z,18.17
2022-07-27T06:25:34.321Z,18.16
2022-07-27T06:28:05.001Z,18.27
2022-07-27T06:30:33.098Z,18.33
2022-07-27T06:33:04.142Z,18.33
2022-07-27T06:35:31.872Z,18.39
2022-07-27T06:38:00.462Z,18.50
2022-07-27T06:40:29.956Z,18.64
2022-07-27T06:42:58.264Z,18.77
2022-07-27T06:45:27.426Z,18.84
2022-07-27T06:47:54.988Z,18.89
2022-07-27T06:50:22.562Z,18.95
2022-07-27T06:52:50.118Z,19.11
2022-07-27T06:55:17.710Z,19.07
2022-07-27T06:57:46.306Z,19.12
2022-07-27T07:00:15.157Z,19.11
2022-07-27T07:02:53.539Z,19.02
2022-07-27T07:05:21.322Z,18.98
2022-07-27T07:07:48.802Z,19.05
2022-07-27T07:10:16.506Z,19.15
2022-07-27T07:12:44.031Z,19.12
2022-07-27T07:15:13.191Z,19.12
2022-07-27T07:17:40.713Z,19.23
2022-07-27T07:20:10.934Z,19.31
2022-07-27T07:22:38.421Z,19.39
2022-07-27T07:25:06.331Z,19.50
2022-07-27T07:27:34.146Z,19.46
2022-07-27T07:30:04.107Z,19.56
2022-07-27T07:32:33.682Z,19.68
2022-07-27T07:35:03.557Z,19.55
2022-07-27T07:37:33.636Z,19.58
2022-07-27T07:40:18.811Z,19.44
2022-07-27T07:42:51.369Z,19.58
2022-07-27T07:45:19.251Z,19.72
2022-07-27T07:47:46.740Z,19.82
2022-07-27T07:50:14.952Z,19.88
2022-07-27T07:52:43.846Z,20.01
2022-07-27T07:55:11.687Z,20.13
2022-07-27T07:57:39.195Z,20.16
2022-07-27T08:00:09.036Z,20.17
2022-07-27T08:02:45.103Z,20.22
2022-07-27T08:05:13.157Z,20.25
2022-07-27T08:07:40.686Z,20.28
2022-07-27T08:10:11.819Z,20.20
2022-07-27T08:12:43.743Z,20.14
2022-07-27T08:15:12.448Z,20.20
2022-07-27T08:17:40.063Z,20.40
2022-07-27T08:20:08.934Z,20.54
2022-07-27T08:22:36.537Z,20.63
2022-07-27T08:25:04.171Z,20.54
2022-07-27T08:27:40.310Z,20.44
2022-07-27T08:30:09.220Z,20.56
2022-07-27T08:32:50.561Z,20.74
2022-07-27T08:35:18.852Z,20.84
2022-07-27T08:37:46.554Z,20.79
2022-07-27T08:43:05.060Z,20.77
2022-07-27T08:45:33.550Z,20.58
2022-07-27T08:48:01.054Z,20.57
2022-07-27T08:50:30.616Z,20.57
2022-07-27T08:53:04.116Z,20.61
2022-07-27T08:55:32.582Z,20.54
2022-07-27T08:58:03.231Z,20.55
2022-07-27T09:00:33.084Z,20.57
2022-07-27T09:03:00.810Z,20.66
2022-07-27T09:05:36.286Z,20.60
2022-07-27T09:08:15.918Z,20.73
2022-07-27T09:10:43.893Z,20.78
2022-07-27T09:13:22.156Z,20.93
2022-07-27T09:16:16.967Z,20.91
2022-07-27T09:18:40.860Z,20.93
2022-07-27T09:21:10.262Z,20.87
2022-07-27T09:23:38.168Z,20.90
2022-07-27T09:26:31.037Z,20.95
2022-07-27T09:29:01.446Z,21.00
2022-07-27T09:31:30.829Z,21.02
2022-07-27T09:34:00.107Z,21.06
2022-07-27T09:36:29.182Z,21.08
2022-07-27T09:39:02.500Z,21.18
2022-07-27T09:41:41.455Z,21.39
2022-07-27T09:44:31.153Z,21.38
2022-07-27T09:46:58.534Z,21.28
2022-07-27T09:49:30.973Z,21.21
2022-07-27T09:52:01.021Z,21.32
2022-07-27T09:54:29.838Z,21.47
2022-07-27T09:57:02.033Z,21.43
2022-07-27T09:59:31.265Z,21.52
2022-07-27T10:02:01.577Z,21.60
2022-07-27T10:04:29.282Z,21.58
2022-07-27T10:07:07.298Z,21.66
2022-07-27T10:09:38.771Z,21.86
2022-07-27T10:12:06.895Z,22.02
2022-07-27T10:14:35.203Z,22.14
2022-07-27T10:17:04.499Z,22.17
2022-07-27T10:19:38.050Z,22.08
2022-07-27T10:22:05.561Z,22.31
2022-07-27T10:24:37.009Z,22.34
2022-07-27T10:27:20.528Z,22.51
2022-07-27T10:29:48.898Z,22.76
2022-07-27T10:32:24.603Z,22.73
2022-07-27T10:34:52.289Z,22.44
2022-07-27T10:37:26.085Z,22.46
2022-07-27T10:40:15.952Z,22.59
2022-07-27T10:42:43.625Z,22.67
2022-07-27T10:45:12.344Z,22.56
2022-07-27T10:47:44.871Z,22.61
2022-07-27T10:50:32.514Z,22.62
2022-07-27T10:53:03.327Z,22.65
2022-07-27T10:55:47.607Z,22.71
2022-07-27T10:58:46.504Z,22.75
2022-07-27T11:01:15.768Z,22.80
2022-07-27T11:03:52.253Z,22.72
2022-07-27T11:06:41.876Z,22.63
2022-07-27T11:10:00.112Z,22.65
2022-07-27T11:12:01.017Z,22.91
2022-07-27T11:14:31.644Z,23.09
2022-07-27T11:17:17.994Z,23.11
2022-07-27T11:19:54.464Z,23.16
2022-07-27T11:23:03.261Z,23.08
2022-07-27T11:25:20.456Z,23.00
2022-07-27T11:27:49.093Z,22.88
2022-07-27T11:30:24.371Z,22.97
2022-07-27T11:32:52.024Z,22.88
2022-07-27T11:35:20.966Z,23.11
2022-07-27T11:37:59.333Z,23.22
2022-07-27T11:43:15.088Z,23.28
2022-07-27T11:45:43.299Z,23.49
2022-07-27T11:48:10.875Z,23.49
2022-07-27T11:50:57.702Z,23.27
2022-07-27T11:53:25.202Z,22.99
2022-07-27T11:55:52.764Z,22.85
2022-07-27T11:58:20.272Z,22.93
2022-07-27T12:00:47.759Z,23.01
2022-07-27T12:03:20.833Z,23.07
2022-07-27T12:05:51.843Z,23.25
2022-07-27T12:10:58.179Z,23.35
2022-07-27T12:13:33.151Z,23.17
2022-07-27T12:17:11.714Z,23.16
2022-07-27T12:19:13.617Z,23.39
2022-07-27T12:21:52.149Z,23.67
2022-07-27T12:24:19.631Z,23.57
2022-07-27T12:27:06.362Z,23.43
2022-07-27T12:29:34.434Z,23.29
2022-07-27T12:32:04.370Z,23.27
2022-07-27T12:34:36.494Z,23.27
2022-07-27T12:37:12.605Z,23.48
2022-07-27T12:39:42.949Z,23.61
2022-07-27T12:42:10.992Z,23.55
2022-07-27T12:44:40.530Z,23.60
2022-07-27T12:47:28.051Z,23.50
2022-07-27T12:50:07.150Z,23.55
2022-07-27T12:52:37.578Z,23.69
2022-07-27T12:55:08.572Z,23.79
2022-07-27T12:57:54.472Z,23.83
2022-07-27T13:00:30.862Z,24.04
2022-07-27T13:03:01.147Z,23.99
2022-07-27T13:05:28.790Z,23.85
2022-07-27T13:07:57.697Z,23.82
2022-07-27T13:10:25.334Z,23.85
2022-07-27T13:12:53.313Z,23.90
2022-07-27T13:15:20.886Z,24.09
2022-07-27T13:17:49.265Z,24.17
2022-07-27T13:20:17.916Z,24.14
2022-07-27T13:22:46.970Z,24.08
2022-07-27T13:25:17.721Z,23.99
2022-07-27T13:27:46.063Z,23.90
2022-07-27T13:30:14.911Z,23.86
2022-07-27T13:32:43.002Z,24.04
2022-07-27T13:35:12.284Z,24.34
2022-07-27T13:37:39.926Z,24.20
2022-07-27T13:40:08.825Z,24.21
2022-07-27T13:42:37.845Z,24.10
2022-07-27T13:45:11.262Z,24.22
2022-07-27T13:47:40.169Z,24.10
2022-07-27T13:50:15.057Z,23.99
2022-07-27T13:52:46.127Z,23.95
2022-07-27T13:55:14.776Z,24.13
2022-07-27T13:57:43.986Z,24.11
2022-07-27T14:00:12.635Z,24.08
2022-07-27T14:02:41.911Z,24.08
2022-07-27T14:05:10.103Z,24.06
2022-07-27T14:07:40.804Z,23.87
2022-07-27T14:10:26.932Z,23.80
2022-07-27T14:13:01.729Z,23.86
2022-07-27T14:15:53.489Z,23.84
2022-07-27T14:18:24.374Z,23.79
2022-07-27T14:20:51.897Z,23.71
2022-07-27T14:23:19.702Z,23.78
2022-07-27T14:25:47.274Z,23.79
2022-07-27T14:28:16.678Z,23.66
2022-07-27T14:30:44.185Z,23.80
2022-07-27T14:33:11.731Z,23.75
2022-07-27T14:35:40.992Z,23.78
2022-07-27T14:38:08.772Z,23.70
2022-07-27T14:40:36.505Z,23.68
2022-07-27T14:43:04.241Z,23.73
2022-07-27T14:45:44.691Z,23.83
2022-07-27T14:48:20.401Z,23.79
2022-07-27T14:50:50.642Z,23.86
2022-07-27T14:53:18.152Z,23.83
2022-07-27T14:55:45.643Z,23.86
2022-07-27T14:58:13.174Z,23.79
2022-07-27T15:00:42.101Z,23.79
2022-07-27T15:03:09.679Z,23.74
2022-07-27T15:05:50.556Z,23.73
2022-07-27T15:08:18.653Z,23.74
2022-07-27T15:10:46.542Z,23.75
2022-07-27T15:13:14.614Z,23.70
2022-07-27T15:15:43.865Z,23.64
2022-07-27T15:18:11.379Z,23.70
2022-07-27T15:20:39.015Z,23.80
2022-07-27T15:23:06.724Z,23.79
2022-07-27T15:25:34.348Z,23.75
2022-07-27T15:28:02.035Z,23.72
2022-07-27T15:30:31.098Z,23.82
2022-07-27T15:33:01.612Z,23.85
2022-07-27T15:35:29.083Z,23.86
2022-07-27T15:37:56.630Z,23.73
2022-07-27T15:40:41.303Z,23.77
2022-07-27T15:43:12.189Z,23.79
2022-07-27T15:45:40.531Z,23.73
2022-07-27T15:48:12.781Z,23.66
2022-07-27T15:50:42.080Z,23.62
2022-07-27T15:53:10.908Z,23.52
2022-07-27T15:55:39.068Z,23.52
2022-07-27T15:58:07.177Z,23.49
2022-07-27T16:00:39.517Z,23.59
2022-07-27T16:03:10.919Z,23.64
2022-07-27T16:05:42.487Z,23.69
2022-07-27T16:08:17.991Z,23.69
2022-07-27T16:10:47.920Z,23.59
2022-07-27T16:13:16.002Z,23.65
2022-07-27T16:16:02.211Z,23.73
2022-07-27T16:18:35.313Z,23.87
2022-07-27T16:21:05.940Z,23.84
2022-07-27T16:23:33.848Z,23.82
2022-07-27T16:26:04.647Z,23.80
2022-07-27T16:28:34.511Z,23.77
2022-07-27T16:31:02.845Z,23.81
2022-07-27T16:33:31.804Z,23.82
2022-07-27T16:35:59.655Z,23.85
2022-07-27T16:38:27.176Z,23.86
2022-07-27T16:40:54.778Z,23.99
2022-07-27T16:43:22.746Z,24.02
2022-07-27T16:45:51.422Z,23.97
2022-07-27T16:48:19.489Z,23.92
2022-07-27T16:50:48.483Z,23.91
2022-07-27T16:53:24.083Z,23.86
2022-07-27T16:56:02.143Z,23.97
2022-07-27T16:58:44.780Z,24.00
2022-07-27T17:02:06.149Z,23.85
2022-07-27T17:04:13.205Z,23.76
2022-07-27T17:07:12.503Z,23.74
2022-07-27T17:09:48.878Z,23.99
2022-07-27T17:12:18.802Z,23.90
2022-07-27T17:14:57.257Z,23.90
2022-07-27T17:17:42.557Z,23.83
2022-07-27T17:21:05.224Z,23.74
2022-07-27T17:23:26.680Z,23.84
2022-07-27T17:26:02.463Z,24.13
2022-07-27T17:28:30.393Z,24.54
2022-07-27T17:30:58.372Z,24.73
2022-07-27T17:33:28.186Z,24.97
2022-07-27T17:36:08.385Z,24.70
2022-07-27T17:38:41.370Z,24.33
2022-07-27T17:41:09.018Z,24.10
2022-07-27T17:43:38.779Z,23.96
2022-07-27T17:46:08.237Z,23.93
2022-07-27T17:48:36.547Z,23.89
2022-07-27T17:51:05.480Z,23.88
2022-07-27T17:53:45.570Z,23.76
2022-07-27T17:56:41.660Z,23.77
2022-07-27T17:59:37.663Z,23.58
2022-07-27T18:02:29.266Z,23.45
2022-07-27T18:07:41.294Z,23.42
2022-07-27T18:10:14.990Z,23.20
2022-07-27T18:12:55.077Z,23.12
2022-07-27T18:15:50.363Z,23.01
2022-07-27T18:18:30.661Z,23.06
2022-07-27T18:21:03.162Z,23.02
2022-07-27T18:23:31.220Z,22.90
2022-07-27T18:25:59.276Z,22.83
2022-07-27T18:28:39.750Z,22.82
2022-07-27T18:31:09.810Z,22.78
2022-07-27T18:34:12.918Z,22.76
2022-07-27T18:36:56.188Z,22.71
2022-07-27T18:39:28.998Z,22.68
2022-07-27T18:42:11.912Z,22.58
2022-07-27T18:44:42.384Z,22.45
2022-07-27T18:47:16.369Z,22.48
2022-07-27T18:50:00.568Z,22.40
2022-07-27T18:52:42.737Z,22.28
2022-07-27T18:55:12.835Z,22.22
2022-07-27T18:57:40.845Z,22.17
2022-07-27T19:00:12.974Z,22.06
2022-07-27T19:03:02.802Z,21.98
2022-07-27T19:05:41.672Z,21.97
2022-07-27T19:08:14.605Z,21.93
2022-07-27T19:10:43.087Z,21.89
2022-07-27T19:13:11.392Z,21.84
2022-07-27T19:15:50.877Z,21.84
2022-07-27T19:18:25.304Z,21.86
2022-07-27T19:20:55.835Z,21.78
2022-07-27T19:23:27.502Z,21.80
2022-07-27T19:26:12.046Z,21.74
2022-07-27T19:28:45.310Z,21.66
2022-07-27T19:31:23.414Z,21.57
2022-07-27T19:33:53.540Z,21.43
2022-07-27T19:36:23.234Z,21.41
2022-07-27T19:38:51.167Z,21.34
2022-07-27T19:41:19.396Z,21.31
2022-07-27T19:43:49.467Z,21.32
2022-07-27T19:46:18.692Z,21.29
2022-07-27T19:48:46.736Z,21.33
2022-07-27T19:51:17.100Z,21.25
2022-07-27T19:53:44.950Z,21.20
2022-07-27T19:56:12.950Z,21.19
2022-07-27T19:58:50.642Z,21.15
2022-07-27T20:01:25.654Z,21.08
2022-07-27T20:03:55.013Z,20.97
2022-07-27T20:06:25.652Z,20.91
2022-07-27T20:08:59.951Z,20.83
2022-07-27T20:11:30.198Z,20.81
2022-07-27T20:13:59.135Z,20.73
2022-07-27T20:16:58.626Z,20.65
2022-07-27T20:19:55.905Z,20.50
2022-07-27T20:22:50.140Z,20.42
2022-07-27T20:25:49.077Z,20.38
2022-07-27T20:28:50.629Z,20.27
2022-07-27T20:31:45.845Z,20.25
2022-07-27T20:34:22.216Z,20.26
2022-07-27T20:36:52.368Z,20.11
2022-07-27T20:39:28.793Z,20.20
2022-07-27T20:42:11.038Z,20.20
2022-07-27T20:44:52.550Z,20.10
2022-07-27T20:47:40.144Z,20.13
2022-07-27T20:53:14.541Z,20.11
2022-07-27T20:55:51.196Z,20.06
2022-07-27T20:58:33.423Z,20.08
2022-07-27T21:01:53.602Z,19.96
2022-07-27T21:04:04.719Z,19.90
2022-07-27T21:06:33.645Z,19.85
2022-07-27T21:09:01.286Z,19.75
2022-07-27T21:11:29.783Z,19.70
2022-07-27T21:13:57.325Z,19.62
2022-07-27T21:16:24.978Z,19.63
2022-07-27T21:18:52.841Z,19.54
2022-07-27T21:21:25.532Z,19.53
2022-07-27T21:24:14.347Z,19.52
2022-07-27T21:26:43.406Z,19.46
2022-07-27T21:29:11.297Z,19.38
2022-07-27T21:31:46.929Z,19.25
2022-07-27T21:34:25.789Z,19.20
2022-07-27T21:37:05.632Z,19.23
2022-07-27T21:39:52.092Z,19.17
2022-07-27T21:42:19.721Z,19.19
2022-07-27T21:44:47.216Z,19.22
2022-07-27T21:47:14.794Z,19.18
2022-07-27T21:49:42.569Z,19.18
2022-07-27T21:52:11.074Z,19.11
2022-07-27T21:54:40.093Z,19.08
2022-07-27T21:57:07.636Z,19.04
2022-07-27T21:59:35.132Z,19.11
2022-07-27T22:02:02.622Z,18.95
2022-07-27T22:04:30.149Z,18.93
2022-07-27T22:06:57.771Z,18.95
2022-07-27T22:09:25.266Z,19.00
2022-07-27T22:11:54.123Z,18.92
2022-07-27T22:14:24.058Z,18.96
2022-07-27T22:16:52.864Z,18.78
2022-07-27T22:19:20.457Z,18.86
2022-07-27T22:21:47.985Z,18.90
2022-07-27T22:24:15.967Z,18.86
2022-07-27T22:26:43.778Z,18.86
2022-07-27T22:29:12.751Z,18.78
2022-07-27T22:31:40.581Z,18.69
2022-07-27T22:34:08.240Z,18.60
2022-07-27T22:36:35.747Z,18.66
2022-07-27T22:39:03.334Z,18.63
2022-07-27T22:41:30.969Z,18.64
2022-07-27T22:43:59.219Z,18.64
2022-07-27T22:46:29.837Z,18.60
2022-07-27T22:48:57.635Z,18.53
2022-07-27T22:51:26.414Z,18.65
2022-07-27T22:54:14.351Z,18.53
2022-07-27T22:56:42.118Z,18.48
2022-07-27T22:59:09.625Z,18.48
2022-07-27T23:01:46.659Z,18.44
2022-07-27T23:04:15.895Z,18.43
2022-07-27T23:06:43.883Z,18.36
2022-07-27T23:09:11.475Z,18.32
2022-07-27T23:11:39.131Z,18.30
2022-07-27T23:14:07.410Z,18.23
2022-07-27T23:16:35.443Z,18.26
2022-07-27T23:19:04.643Z,18.26
2022-07-27T23:21:32.222Z,18.24
2022-07-27T23:23:59.751Z,18.20
2022-07-27T23:26:28.386Z,18.13
2022-07-27T23:28:55.993Z,18.14
2022-07-27T23:31:23.690Z,18.19
2022-07-27T23:33:51.397Z,18.17
2022-07-27T23:36:20.262Z,17.99
2022-07-27T23:38:47.729Z,17.98
2022-07-27T23:41:16.636Z,17.97
2022-07-27T23:43:44.846Z,17.93
2022-07-27T23:46:12.484Z,18.00
2022-07-27T23:48:40.199Z,17.99
2022-07-27T23:51:08.845Z,17.91
2022-07-27T23:53:37.761Z,17.84
2022-07-27T23:56:05.678Z,17.78
2022-07-27T23:58:33.194Z,17.79
